createdAt,value
2022-11-26T00:00:17.360Z,14.70
2022-11-26T00:01:17.349Z,14.90
2022-11-26T00:02:17.551Z,14.50
2022-11-26T00:03:17.464Z,15.30
2022-11-26T00:04:17.334Z,14.90
2022-11-26T00:05:17.326Z,14.60
2022-11-26T00:06:17.329Z,16.00
2022-11-26T00:07:17.342Z,14.50
2022-11-26T00:08:17.274Z,15.30
2022-11-26T00:09:17.264Z,14.70
2022-11-26T00:10:17.266Z,15.30
2022-11-26T00:11:17.247Z,15.00
2022-11-26T00:12:17.229Z,14.70
2022-11-26T00:13:17.238Z,15.00
2022-11-26T00:14:17.211Z,16.20
2022-11-26T00:15:17.197Z,16.00
2022-11-26T00:16:17.223Z,16.00
2022-11-26T00:17:17.196Z,16.20
2022-11-26T00:18:17.178Z,15.30
2022-11-26T00:19:17.170Z,15.90
2022-11-26T00:20:17.141Z,15.60
2022-11-26T00:21:17.147Z,16.20
2022-11-26T00:22:17.139Z,15.30
2022-11-26T00:23:17.635Z,16.00
2022-11-26T00:24:17.115Z,15.50
2022-11-26T00:25:17.089Z,16.80
2022-11-26T00:26:17.078Z,15.90
2022-11-26T00:27:17.074Z,15.20
2022-11-26T00:28:17.053Z,15.90
2022-11-26T00:29:17.065Z,16.80
2022-11-26T00:30:17.038Z,15.60
2022-11-26T00:31:17.074Z,16.30
2022-11-26T00:32:17.008Z,15.50
2022-11-26T00:33:17.000Z,16.90
2022-11-26T00:34:16.995Z,16.40
2022-11-26T00:35:16.996Z,16.40
2022-11-26T00:36:16.964Z,15.80
2022-11-26T00:37:16.959Z,15.90
2022-11-26T00:38:16.964Z,15.60
2022-11-26T00:39:16.935Z,15.30
2022-11-26T00:40:16.944Z,16.30
2022-11-26T00:41:16.929Z,15.60
2022-11-26T00:42:16.901Z,15.80
2022-11-26T00:43:16.891Z,16.10
2022-11-26T00:44:16.878Z,17.60
2022-11-26T00:45:16.872Z,15.80
2022-11-26T00:46:23.945Z,17.00
2022-11-26T00:47:16.847Z,16.90
2022-11-26T00:48:16.844Z,17.00
2022-11-26T00:49:16.825Z,16.10
2022-11-26T00:50:16.833Z,17.00
2022-11-26T00:51:16.803Z,16.40
2022-11-26T00:52:16.807Z,16.00
2022-11-26T00:53:16.783Z,15.00
2022-11-26T00:54:16.795Z,16.60
2022-11-26T00:55:16.766Z,15.70
2022-11-26T00:56:16.760Z,16.40
2022-11-26T00:57:16.740Z,16.70
2022-11-26T00:58:16.745Z,16.50
2022-11-26T00:59:16.718Z,17.20
2022-11-26T01:00:16.719Z,17.60
2022-11-26T01:01:16.763Z,17.50
2022-11-26T01:02:16.804Z,17.70
2022-11-26T01:03:16.672Z,16.80
2022-11-26T01:04:16.679Z,16.10
2022-11-26T01:05:16.663Z,17.00
2022-11-26T01:06:16.635Z,17.10
2022-11-26T01:07:16.739Z,16.20
2022-11-26T01:08:16.627Z,16.10
2022-11-26T01:09:16.619Z,18.10
2022-11-26T01:10:16.612Z,16.50
2022-11-26T01:11:16.586Z,17.90
2022-11-26T01:12:16.573Z,17.30
2022-11-26T01:13:16.564Z,17.90
2022-11-26T01:14:16.568Z,17.70
2022-11-26T01:15:16.543Z,17.20
2022-11-26T01:16:16.582Z,18.10
2022-11-26T01:17:16.524Z,17.70
2022-11-26T01:18:16.518Z,17.30
2022-11-26T01:19:16.495Z,18.90
2022-11-26T01:20:16.494Z,17.90
2022-11-26T01:21:16.490Z,17.40
2022-11-26T01:22:16.475Z,16.90
2022-11-26T01:23:16.455Z,17.60
2022-11-26T01:24:16.439Z,17.70
2022-11-26T01:25:16.431Z,17.70
2022-11-26T01:26:16.439Z,18.50
2022-11-26T01:27:16.425Z,19.30
2022-11-26T01:28:16.394Z,17.60
2022-11-26T01:29:16.402Z,18.90
2022-11-26T01:30:16.374Z,17.20
2022-11-26T01:31:16.436Z,18.40
2022-11-26T01:32:16.366Z,17.70
2022-11-26T01:33:16.348Z,17.00
2022-11-26T01:34:16.330Z,18.20
2022-11-26T01:35:16.324Z,18.60
2022-11-26T01:36:16.311Z,17.70
2022-11-26T01:37:16.318Z,18.60
2022-11-26T01:38:16.288Z,18.40
2022-11-26T01:39:16.286Z,17.90
2022-11-26T01:40:16.268Z,18.40
2022-11-26T01:41:16.259Z,18.70
2022-11-26T01:42:16.281Z,18.10
2022-11-26T01:43:16.240Z,18.40
2022-11-26T01:44:16.238Z,18.40
2022-11-26T01:45:16.217Z,18.50
2022-11-26T01:46:16.311Z,17.00
2022-11-26T01:47:16.198Z,18.20
2022-11-26T01:48:16.198Z,20.00
2022-11-26T01:49:16.173Z,17.50
2022-11-26T01:50:16.162Z,18.40
2022-11-26T01:51:16.151Z,19.20
2022-11-26T01:52:16.136Z,19.60
2022-11-26T01:53:16.142Z,18.80
2022-11-26T01:54:16.119Z,19.50
2022-11-26T01:55:16.126Z,19.30
2022-11-26T01:56:16.091Z,19.00
2022-11-26T01:57:16.083Z,20.00
2022-11-26T01:58:16.093Z,19.70
2022-11-26T01:59:16.074Z,20.40
2022-11-26T02:00:16.070Z,19.70
2022-11-26T02:01:16.081Z,19.10
2022-11-26T02:02:16.157Z,19.10
2022-11-26T02:03:16.016Z,19.80
2022-11-26T02:04:16.019Z,18.80
2022-11-26T02:05:15.999Z,18.80
2022-11-26T02:06:16.009Z,19.60
2022-11-26T02:07:16.045Z,19.60
2022-11-26T02:08:15.962Z,19.60
2022-11-26T02:09:15.970Z,19.30
2022-11-26T02:10:15.939Z,19.20
2022-11-26T02:11:15.933Z,18.60
2022-11-26T02:12:15.920Z,17.00
2022-11-26T02:13:15.926Z,19.50
2022-11-26T02:14:15.915Z,20.90
2022-11-26T02:15:15.891Z,19.00
2022-11-26T02:16:15.933Z,19.90
2022-11-26T02:17:15.870Z,19.90
2022-11-26T02:18:15.856Z,19.30
2022-11-26T02:19:15.847Z,19.90
2022-11-26T02:20:15.847Z,18.10
2022-11-26T02:21:15.825Z,18.80
2022-11-26T02:22:15.812Z,19.80
2022-11-26T02:23:15.803Z,18.00
2022-11-26T02:24:15.792Z,17.40
2022-11-26T02:25:15.805Z,16.80
2022-11-26T02:26:15.768Z,20.00
2022-11-26T02:27:15.761Z,18.70
2022-11-26T02:28:15.748Z,19.20
2022-11-26T02:29:15.757Z,20.60
2022-11-26T02:30:15.749Z,19.30
2022-11-26T02:31:15.784Z,18.90
2022-11-26T02:32:15.706Z,19.20
2022-11-26T02:33:15.699Z,19.90
2022-11-26T02:34:15.685Z,19.30
2022-11-26T02:35:15.691Z,19.20
2022-11-26T02:36:15.663Z,19.60
2022-11-26T02:37:15.658Z,17.80
2022-11-26T02:38:15.640Z,17.50
2022-11-26T02:39:15.632Z,18.80
2022-11-26T02:40:15.633Z,17.80
2022-11-26T02:41:15.625Z,19.10
2022-11-26T02:42:15.600Z,19.20
2022-11-26T02:43:15.589Z,18.50
2022-11-26T02:44:15.584Z,18.00
2022-11-26T02:45:15.565Z,20.10
2022-11-26T02:46:15.663Z,20.40
2022-11-26T02:47:23.348Z,19.30
2022-11-26T02:48:15.536Z,20.30
2022-11-26T02:49:15.522Z,20.50
2022-11-26T02:50:15.514Z,21.90
2022-11-26T02:51:15.513Z,22.00
2022-11-26T02:52:15.493Z,20.00
2022-11-26T02:53:15.484Z,20.20
2022-11-26T02:54:15.472Z,23.70
2022-11-26T02:55:15.461Z,21.10
2022-11-26T02:56:15.467Z,20.30
2022-11-26T02:57:15.443Z,20.30
2022-11-26T02:58:15.521Z,21.10
2022-11-26T02:59:15.414Z,20.10
2022-11-26T03:00:15.412Z,21.40
2022-11-26T03:01:15.459Z,22.90
2022-11-26T03:02:15.408Z,21.60
2022-11-26T03:03:15.371Z,25.70
2022-11-26T03:04:15.399Z,20.20
2022-11-26T03:05:15.355Z,20.70
2022-11-26T03:06:15.357Z,21.30
2022-11-26T03:07:15.366Z,23.10
2022-11-26T03:08:15.322Z,22.00
2022-11-26T03:09:15.307Z,24.10
2022-11-26T03:10:15.300Z,20.10
2022-11-26T03:11:15.284Z,20.50
2022-11-26T03:12:15.386Z,22.40
2022-11-26T03:13:15.274Z,22.00
2022-11-26T03:14:15.255Z,20.60
2022-11-26T03:15:15.241Z,23.00
2022-11-26T03:16:15.409Z,20.90
2022-11-26T03:17:15.218Z,19.40
2022-11-26T03:18:15.254Z,18.30
2022-11-26T03:19:15.197Z,20.70
2022-11-26T03:20:15.191Z,19.60
2022-11-26T03:21:15.176Z,20.70
2022-11-26T03:22:15.184Z,20.80
2022-11-26T03:23:15.154Z,22.30
2022-11-26T03:24:15.145Z,22.00
2022-11-26T03:25:15.133Z,22.10
2022-11-26T03:26:15.136Z,21.50
2022-11-26T03:27:15.123Z,19.40
2022-11-26T03:28:15.115Z,19.80
2022-11-26T03:29:15.090Z,20.20
2022-11-26T03:30:15.085Z,20.40
2022-11-26T03:31:15.098Z,19.80
2022-11-26T03:32:15.073Z,20.00
2022-11-26T03:33:15.061Z,20.00
2022-11-26T03:34:15.072Z,20.70
2022-11-26T03:35:15.023Z,18.80
2022-11-26T03:36:15.022Z,20.70
2022-11-26T03:37:15.010Z,22.40
2022-11-26T03:38:15.010Z,21.80
2022-11-26T03:39:14.999Z,22.10
2022-11-26T03:40:14.975Z,22.00
2022-11-26T03:41:14.975Z,19.30
2022-11-26T03:42:14.952Z,22.10
2022-11-26T03:43:14.951Z,22.40
2022-11-26T03:44:14.930Z,19.80
2022-11-26T03:45:14.916Z,20.80
2022-11-26T03:46:14.956Z,22.20
2022-11-26T03:47:14.893Z,19.20
2022-11-26T03:48:14.902Z,21.10
2022-11-26T03:49:14.889Z,21.90
2022-11-26T03:50:14.885Z,22.60
2022-11-26T03:51:14.863Z,21.20
2022-11-26T03:52:14.843Z,22.00
2022-11-26T03:53:14.829Z,20.50
2022-11-26T03:54:14.835Z,19.80
2022-11-26T03:55:14.824Z,22.00
2022-11-26T03:56:14.804Z,22.60
2022-11-26T03:57:14.798Z,20.40
2022-11-26T03:58:14.776Z,20.90
2022-11-26T03:59:14.766Z,18.60
2022-11-26T04:00:14.768Z,19.90
2022-11-26T04:01:14.847Z,19.70
2022-11-26T04:02:14.759Z,18.10
2022-11-26T04:03:14.782Z,18.80
2022-11-26T04:04:14.714Z,17.40
2022-11-26T04:05:14.699Z,18.00
2022-11-26T04:06:14.715Z,16.50
2022-11-26T04:07:14.707Z,18.60
2022-11-26T04:08:14.684Z,17.10
2022-11-26T04:09:14.669Z,17.20
2022-11-26T04:10:14.648Z,18.80
2022-11-26T04:11:14.635Z,18.60
2022-11-26T04:12:14.627Z,18.90
2022-11-26T04:13:14.624Z,20.20
2022-11-26T04:14:14.604Z,20.30
2022-11-26T04:15:14.608Z,20.20
2022-11-26T04:16:14.661Z,20.30
2022-11-26T04:17:14.573Z,20.60
2022-11-26T04:18:14.561Z,18.80
2022-11-26T04:19:14.559Z,21.30
2022-11-26T04:20:14.543Z,21.20
2022-11-26T04:21:14.529Z,22.30
2022-11-26T04:22:14.537Z,21.20
2022-11-26T04:23:14.516Z,21.10
2022-11-26T04:24:14.498Z,25.00
2022-11-26T04:25:14.495Z,24.50
2022-11-26T04:26:14.473Z,23.00
2022-11-26T04:27:15.232Z,25.10
2022-11-26T04:28:14.453Z,24.70
2022-11-26T04:29:14.451Z,24.60
2022-11-26T04:30:14.451Z,26.10
2022-11-26T04:31:14.525Z,27.30
2022-11-26T04:32:14.409Z,26.50
2022-11-26T04:33:14.408Z,27.30
2022-11-26T04:34:14.406Z,26.20
2022-11-26T04:35:14.376Z,27.00
2022-11-26T04:36:14.366Z,24.70
2022-11-26T04:37:14.352Z,27.70
2022-11-26T04:38:14.364Z,29.70
2022-11-26T04:39:14.344Z,28.10
2022-11-26T04:40:14.325Z,27.20
2022-11-26T04:41:14.308Z,29.10
2022-11-26T04:42:14.304Z,26.40
2022-11-26T04:43:14.303Z,29.60
2022-11-26T04:44:14.282Z,30.60
2022-11-26T04:45:14.263Z,29.10
2022-11-26T04:46:14.323Z,28.40
2022-11-26T04:47:14.242Z,30.20
2022-11-26T04:48:21.739Z,27.10
2022-11-26T04:49:14.221Z,31.00
2022-11-26T04:50:14.225Z,29.60
2022-11-26T04:51:14.202Z,25.60
2022-11-26T04:52:14.209Z,30.60
2022-11-26T04:53:14.177Z,29.50
2022-11-26T04:54:14.207Z,27.10
2022-11-26T04:55:14.158Z,31.40
2022-11-26T04:56:14.151Z,27.00
2022-11-26T04:57:14.136Z,29.80
2022-11-26T04:58:14.126Z,31.90
2022-11-26T04:59:14.125Z,32.90
2022-11-26T05:00:14.110Z,30.90
2022-11-26T05:01:14.139Z,32.50
2022-11-26T05:02:14.096Z,30.90
2022-11-26T05:03:14.069Z,30.90
2022-11-26T05:04:14.073Z,31.10
2022-11-26T05:05:14.047Z,32.60
2022-11-26T05:06:14.042Z,32.50
2022-11-26T05:07:14.126Z,32.60
2022-11-26T05:08:14.017Z,32.40
2022-11-26T05:09:14.005Z,32.70
2022-11-26T05:10:14.029Z,34.40
2022-11-26T05:11:13.981Z,31.40
2022-11-26T05:12:13.975Z,33.30
2022-11-26T05:13:13.964Z,33.50
2022-11-26T05:14:13.953Z,33.80
2022-11-26T05:15:13.957Z,32.70
2022-11-26T22:44:49.225Z,7.80
2022-11-26T22:45:49.247Z,8.50
2022-11-26T22:46:49.185Z,8.80
2022-11-26T22:47:52.693Z,10.30
2022-11-26T22:48:49.166Z,10.10
2022-11-26T22:49:49.144Z,10.40
2022-11-26T22:50:49.132Z,9.70
2022-11-26T22:51:49.115Z,10.10
2022-11-26T22:52:49.114Z,8.90
2022-11-26T22:53:49.102Z,10.20
2022-11-26T22:54:49.105Z,10.00
2022-11-26T22:55:49.072Z,11.00
2022-11-26T22:56:49.092Z,10.20
2022-11-26T22:57:49.053Z,10.70
2022-11-26T22:58:49.044Z,10.20
2022-11-26T22:59:49.036Z,10.10
2022-11-26T23:00:49.044Z,10.20
2022-11-26T23:01:49.022Z,10.00
2022-11-26T23:02:49.126Z,10.20
2022-11-26T23:03:49.038Z,10.00
2022-11-26T23:04:48.977Z,9.80
2022-11-26T23:05:48.963Z,9.70
2022-11-26T23:06:48.981Z,10.10
2022-11-26T23:07:49.039Z,10.30
2022-11-26T23:08:48.937Z,10.10
2022-11-26T23:09:49.103Z,10.10
2022-11-26T23:10:48.933Z,9.60
2022-11-26T23:11:48.918Z,10.00
2022-11-26T23:12:48.888Z,10.30
2022-11-26T23:13:48.875Z,9.90
2022-11-26T23:14:48.866Z,10.40
2022-11-26T23:15:48.912Z,10.20
2022-11-26T23:16:49.015Z,10.10
2022-11-26T23:17:48.849Z,10.20
2022-11-26T23:18:48.822Z,10.80
2022-11-26T23:19:48.823Z,10.20
2022-11-26T23:20:48.809Z,10.40
2022-11-26T23:21:48.788Z,10.30
2022-11-26T23:22:48.812Z,11.10
2022-11-26T23:23:48.767Z,10.70
2022-11-26T23:24:48.765Z,10.90
2022-11-26T23:25:48.763Z,10.90
2022-11-26T23:26:48.740Z,10.70
2022-11-26T23:27:48.722Z,9.90
2022-11-26T23:28:48.714Z,10.50
2022-11-26T23:29:48.704Z,11.10
2022-11-26T23:30:48.709Z,10.80
2022-11-26T23:31:48.751Z,11.00
2022-11-26T23:32:48.689Z,10.80
2022-11-26T23:33:48.662Z,10.50
2022-11-26T23:34:48.651Z,10.60
2022-11-26T23:35:48.634Z,11.10
2022-11-26T23:36:48.649Z,10.80
2022-11-26T23:37:48.621Z,11.60
2022-11-26T23:38:48.603Z,10.90
2022-11-26T23:39:48.593Z,11.50
2022-11-26T23:40:48.592Z,10.90
2022-11-26T23:41:48.587Z,11.50
2022-11-26T23:42:48.567Z,10.70
2022-11-26T23:43:48.550Z,10.40
2022-11-26T23:44:48.546Z,10.50
2022-11-26T23:45:48.630Z,11.40
2022-11-26T23:46:48.611Z,11.50
2022-11-26T23:47:48.507Z,11.80
2022-11-26T23:48:48.516Z,11.20
2022-11-26T23:49:48.512Z,11.60
2022-11-26T23:50:48.479Z,11.10
2022-11-26T23:51:48.476Z,11.10
2022-11-26T23:52:48.454Z,12.00
2022-11-26T23:53:48.455Z,11.80
2022-11-26T23:54:48.437Z,11.30
2022-11-26T23:55:48.420Z,11.20
2022-11-26T23:56:48.412Z,10.90
2022-11-26T23:57:48.395Z,11.80
2022-11-26T23:58:48.417Z,10.80
2022-11-26T23:59:48.379Z,11.80
